Date,TemperatureHighF,TemperatureAvgF,TemperatureLowF,DewpointHighF,DewpointAvgF,DewpointLowF,HumidityHigh,HumidityAvg,HumidityLow,PressureMaxIn,PressureMinIn,WindSpeedMaxMPH,WindSpeedAvgMPH,GustSpeedMaxMPH,PrecipitationSumIn
2014-1-1,12.3,8.6,3.9,6.0,4.1,0.0,85,81,76,30.58,30.20,15,7,0,0.00
2014-1-2,14.8,6.3,-1.4,9.0,2.3,-5.0,86,83,78,30.63,30.55,8,2,0,0.00
2014-1-3,36.0,34.6,31.9,29.0,28.2,27.0,82,77,75,29.78,29.71,22,14,0,0.01
2014-1-4,35.8,25.3,18.0,31.0,19.4,10.0,90,78,70,30.17,29.76,21,9,0,0.00
2014-1-5,11.4,3.0,-8.5,-2.0,-8.9,-20.0,69,58,48,30.75,30.37,21,10,0,0.00
2014-1-6,9.9,-1.5,-9.5,-7.0,-13.0,-18.0,70,59,45,30.73,30.47,22,8,0,0.00
2014-1-7,46.1,20.3,-0.7,24.0,9.7,-8.0,82,65,41,30.47,30.18,12,7,0,0.00
2014-1-8,19.7,16.8,12.3,15.0,12.7,8.0,87,84,69,30.51,30.34,14,6,0,0.00
2014-1-9,29.0,16.6,2.8,27.0,12.9,-1.0,91,85,74,30.46,30.04,15,7,0,0.03
2014-1-10,34.6,31.0,27.4,33.0,29.3,25.0,95,93,90,30.03,29.63,14,5,0,0.06
2014-1-11,48.6,35.2,24.0,33.0,27.9,21.0,90,76,49,29.94,29.75,15,9,0,0.02
2014-1-12,50.6,40.9,32.8,36.0,30.9,26.0,81,68,53,29.77,29.52,17,7,0,0.02
2014-1-13,49.2,38.0,28.8,30.0,27.2,24.0,84,67,44,29.96,29.76,18,9,0,0.00
2014-1-14,45.4,35.1,19.3,33.0,17.1,7.0,73,50,26,30.35,29.78,26,10,0,0.00
2014-1-15,45.0,28.2,9.5,32.0,17.0,3.0,81,64,44,30.35,29.89,18,7,0,0.00
2014-1-16,42.6,35.2,18.8,32.0,18.7,4.0,70,52,40,30.20,29.87,30,12,0,0.00
2014-1-17,37.5,24.6,11.3,18.0,10.4,2.0,71,56,42,30.31,29.95,15,7,0,0.00
2014-1-18,43.9,35.7,19.0,29.0,22.3,14.0,85,60,47,30.18,29.83,28,11,0,0.00
2014-1-19,66.4,41.1,20.5,29.0,21.4,15.0,86,51,23,30.12,29.82,23,11,0,0.00
2014-1-20,48.8,28.8,5.4,26.0,14.1,-3.0,71,56,37,30.59,29.92,23,9,0,0.00
2014-1-21,24.0,10.7,-1.5,9.0,-3.7,-10.0,74,54,33,30.65,30.23,19,8,0,0.00
2014-1-22,33.5,20.3,-0.1,20.0,9.6,-10.0,82,64,49,30.77,30.23,22,8,0,0.00
2014-1-23,18.9,5.2,-6.1,-4.0,-8.3,-13.0,74,56,35,31.02,30.67,19,8,0,0.00
2014-1-24,52.5,32.6,10.3,35.0,17.6,-6.0,72,55,40,30.65,29.88,25,16,0,0.00
2014-1-25,46.7,39.3,30.8,36.0,29.4,22.0,84,68,55,30.14,29.68,27,9,0,0.01
2014-1-26,54.5,37.0,8.3,32.0,20.6,-8.0,72,52,38,30.40,29.67,29,14,0,0.01
2014-1-27,15.0,5.4,-2.4,-6.0,-10.0,-15.0,68,50,35,30.65,30.40,15,5,0,0.00
2014-1-28,22.8,7.4,-4.9,2.0,-6.2,-14.0,72,55,36,30.65,30.41,22,6,0,0.00
2014-1-29,46.6,24.9,2.0,17.0,7.9,-5.0,77,52,28,30.40,29.70,25,13,0,0.00
2014-1-30,38.1,31.5,21.3,24.0,14.2,9.0,64,50,36,30.15,29.52,26,12,0,0.00
2014-1-31,25.1,18.9,13.1,18.0,14.0,8.0,87,81,68,30.27,30.08,11,5,0,0.00
2014-2-1,24.1,19.3,8.4,19.0,13.6,1.0,89,79,68,30.45,30.03,17,5,0,0.00
2014-2-2,29.7,12.9,-3.7,17.0,5.4,-9.0,89,73,56,30.54,30.38,13,6,0,0.00
2014-2-3,31.4,18.8,2.3,17.0,9.6,-2.0,86,69,47,30.40,30.29,12,7,0,0.00
2014-2-4,23.2,15.8,2.8,20.0,12.2,-1.0,90,85,70,30.56,30.30,24,10,0,0.00
2014-2-5,9.6,2.7,-5.5,4.0,-1.9,-10.0,84,81,75,30.86,30.56,18,8,0,0.00
2014-2-6,7.0,-2.6,-12.2,2.0,-7.7,-17.0,82,79,77,30.84,30.61,12,6,0,0.00
2014-2-7,14.5,7.6,-5.4,7.0,2.3,-10.0,88,79,68,30.60,30.30,17,9,0,0.00
2014-2-8,28.0,19.0,10.6,19.0,14.4,7.0,92,82,70,30.36,30.15,18,8,0,0.00
2014-2-9,18.6,11.7,8.6,15.0,6.7,3.0,87,80,70,30.59,30.36,12,5,0,0.00
2014-2-10,15.9,8.1,0.0,5.0,1.8,-5.0,83,76,63,30.68,30.60,6,2,0,0.00
2014-2-11,21.4,14.7,9.7,13.0,8.3,5.0,82,76,68,30.61,30.22,23,12,0,0.00
2014-2-12,31.1,24.6,18.0,24.0,19.5,13.0,91,81,72,30.27,29.93,23,9,0,0.02
2014-2-13,53.9,38.4,24.8,35.0,28.8,21.0,87,70,44,29.93,29.69,19,9,0,0.02
2014-2-14,34.4,25.9,19.8,29.0,19.7,15.0,87,77,62,30.18,29.68,15,6,0,0.02
2014-2-15,57.4,36.3,20.9,37.0,25.7,16.0,85,68,34,30.18,29.91,31,10,0,0.01
2014-2-16,38.8,29.9,23.4,31.0,26.1,21.0,92,86,73,30.20,29.90,22,12,0,0.01
2014-2-17,56.1,40.9,29.6,34.0,26.0,19.0,92,61,27,30.08,29.87,29,10,0,0.00
2014-2-18,67.0,47.4,34.8,31.0,26.2,22.0,63,46,24,30.03,29.70,25,12,0,0.00
2014-2-19,55.2,38.1,22.0,30.0,23.8,17.0,85,60,30,30.03,29.63,20,9,0,0.00
2014-2-20,43.2,34.1,26.9,35.0,26.4,17.0,94,74,51,29.91,29.57,26,11,0,0.22
2014-2-21,51.4,34.3,19.6,29.0,21.1,15.0,85,62,35,29.96,29.86,21,8,0,0.22
2014-2-22,42.7,34.3,28.7,27.0,21.3,17.0,68,60,53,30.29,30.08,13,6,0,0.00
2014-2-23,29.8,25.7,21.0,18.0,12.2,8.0,70,57,46,30.48,30.28,12,4,0,0.00
2014-2-24,27.6,23.3,20.0,22.0,18.5,16.0,90,82,68,30.48,30.27,17,7,0,0.00
2014-2-25,22.4,12.4,7.3,19.0,5.9,0.0,88,75,62,30.67,30.43,20,7,0,0.00
2014-2-26,34.0,16.5,-3.0,16.0,7.3,-8.0,86,69,45,30.66,30.10,31,11,0,0.00
2014-2-27,25.4,16.9,6.7,13.0,2.8,-2.0,79,56,34,30.29,29.96,20,11,0,0.00
2014-2-28,43.9,25.4,15.2,22.0,13.2,3.0,80,61,39,30.27,29.86,20,10,0,0.00
2014-3-1,17.3,7.8,0.2,11.0,1.0,-6.0,78,74,68,30.68,30.28,18,9,0,0.00
2014-3-2,5.2,-0.7,-5.8,-6.0,-11.0,-16.0,73,62,52,30.81,30.66,17,7,0,0.00
2014-3-3,23.6,8.9,-7.6,4.0,-5.0,-14.0,78,56,34,30.80,30.30,25,9,0,0.00
2014-3-4,44.6,26.6,9.9,26.0,14.0,1.0,74,60,44,30.30,30.02,16,8,0,0.00
2014-3-5,34.9,24.8,16.8,21.0,15.8,11.0,80,69,53,30.39,30.17,12,5,0,0.00
2014-3-6,40.9,29.5,16.3,32.0,25.1,12.0,93,84,67,30.39,29.90,22,13,0,0.00
2014-3-7,41.3,33.8,25.7,37.0,28.2,20.0,93,80,67,30.28,29.86,24,10,0,0.00
2014-3-8,45.0,29.5,17.5,20.0,15.0,8.0,84,58,30,30.47,30.29,14,5,0,0.00
2014-3-9,72.2,48.7,23.9,35.0,26.7,11.0,73,47,23,30.37,29.89,38,16,0,0.00
2014-3-10,78.6,56.8,40.7,41.0,33.2,27.0,62,43,25,29.88,29.60,15,6,0,0.00
2014-3-11,49.2,41.3,32.6,36.0,30.9,26.0,92,68,49,30.20,29.45,31,10,0,0.05
2014-3-12,56.8,39.5,25.3,36.0,26.3,18.0,92,65,31,30.29,30.14,22,7,0,0.05
2014-3-13,68.4,47.3,25.7,32.0,24.0,17.0,79,46,19,30.14,29.72,26,11,0,0.00
2014-3-14,62.3,47.6,34.3,31.0,23.5,14.0,68,41,24,30.01,29.69,19,7,0,0.00
2014-3-15,71.2,45.9,29.4,34.0,25.2,17.0,83,48,25,30.28,29.82,29,13,0,0.00
2014-3-16,43.1,31.0,21.1,25.0,17.2,8.0,89,60,32,30.45,30.15,17,7,0,0.00
2014-3-17,62.3,42.8,21.3,31.0,23.3,9.0,67,49,30,30.14,29.46,26,17,0,0.00
2014-3-18,57.7,41.6,30.4,36.0,28.9,26.0,92,63,38,29.91,29.41,23,10,0,0.00
2014-3-19,51.5,38.0,27.5,33.0,27.8,22.0,93,70,42,30.21,29.93,21,10,0,0.04
2014-3-20,67.3,45.9,26.1,31.0,25.0,18.0,82,50,21,30.11,29.85,12,5,0,0.00
2014-3-21,58.6,43.7,31.2,33.0,27.1,18.0,76,54,33,30.32,29.79,23,10,0,0.00
2014-3-22,31.6,26.1,20.7,23.0,14.1,8.0,81,62,39,30.65,30.32,17,8,0,0.00
2014-3-23,40.4,25.6,11.5,16.0,10.6,5.0,81,56,37,30.67,30.36,15,5,0,0.00
2014-3-24,46.2,33.8,22.1,27.0,18.2,11.0,83,55,35,30.38,30.30,19,7,0,0.00
2014-3-25,42.5,29.8,18.5,18.0,13.2,6.0,80,53,30,30.51,30.22,15,6,0,0.00
2014-3-26,63.5,41.0,21.9,40.0,27.5,8.0,90,61,37,30.21,29.59,38,22,0,0.00
2014-3-27,52.7,39.8,32.3,51.0,37.1,27.0,96,90,82,29.94,29.33,24,10,0,0.04
2014-3-28,50.7,35.1,22.2,31.0,26.5,19.0,89,73,45,30.33,29.96,12,4,0,0.04
2014-3-29,61.0,40.0,19.7,33.0,27.2,17.0,92,65,33,30.40,30.10,20,8,0,0.00
2014-3-30,75.7,59.9,45.2,41.0,35.9,32.0,60,43,27,30.10,29.59,29,19,0,0.00
2014-3-31,66.0,50.4,27.9,43.0,31.4,14.0,67,49,39,30.04,29.38,46,23,0,0.00
2014-4-1,43.3,32.9,20.8,24.0,19.9,14.0,80,60,45,30.21,30.03,14,7,0,0.00
2014-4-2,42.3,37.4,32.5,38.0,29.2,21.0,95,73,56,30.14,29.85,23,11,0,0.00
2014-4-3,38.8,37.0,32.3,38.0,35.8,31.0,96,96,94,29.97,29.77,17,8,0,0.05
2014-4-4,44.2,36.2,28.2,33.0,29.8,24.0,96,78,61,30.22,29.97,16,7,0,0.07
2014-4-5,64.3,44.7,25.7,36.0,30.1,23.0,91,62,33,30.21,29.99,25,12,0,0.07
2014-4-6,61.6,52.0,41.7,42.0,37.9,32.0,79,60,45,30.01,29.83,22,10,0,0.00
2014-4-7,65.1,51.4,39.3,45.0,36.8,31.0,93,62,31,30.03,29.83,21,6,0,0.00
2014-4-8,59.5,46.8,35.3,36.0,27.3,16.0,83,52,23,30.15,30.02,18,7,0,0.00
2014-4-9,83.6,58.5,34.4,41.0,29.5,16.0,53,36,20,30.12,29.62,26,11,0,0.00
2014-4-10,68.0,58.1,42.9,39.0,31.2,18.0,64,38,22,30.02,29.61,19,7,0,0.00
2014-4-11,77.5,59.0,39.4,39.0,31.1,19.0,58,37,24,30.09,29.80,22,8,0,0.00
2014-4-12,80.4,67.2,55.7,59.0,52.7,36.0,88,62,44,29.79,29.50,23,11,0,0.00
2014-4-13,61.3,43.3,31.0,50.0,39.6,29.0,95,87,64,30.03,29.54,32,12,0,0.38
2014-4-14,43.6,33.4,26.4,32.0,25.1,20.0,88,72,54,30.35,30.02,23,8,0,0.05
2014-4-15,58.8,40.7,23.3,37.0,29.0,21.0,92,67,34,30.30,29.85,24,10,0,0.06
2014-4-16,64.1,48.1,34.4,42.0,30.6,26.0,74,52,35,30.18,29.72,30,17,0,0.00
2014-4-17,55.6,40.7,30.3,32.0,27.5,24.0,79,62,37,30.41,30.18,13,6,0,0.00
2014-4-18,69.8,51.1,31.9,46.0,37.5,27.0,88,62,41,30.32,30.07,24,12,0,0.00
2014-4-19,78.1,64.3,50.6,54.0,47.9,41.0,72,57,42,30.09,29.93,29,17,0,0.00
2014-4-20,79.0,65.5,56.6,63.0,54.0,47.0,89,68,44,29.98,29.90,23,12,0,0.04
2014-4-21,73.2,62.5,51.7,56.0,44.2,31.0,93,58,23,30.15,29.93,22,8,0,0.19
2014-4-22,72.4,56.1,39.9,39.0,35.2,32.0,76,48,27,30.19,29.94,19,10,0,0.00
2014-4-23,75.8,58.2,49.3,52.0,44.6,36.0,90,62,43,29.94,29.53,31,18,0,0.12
2014-4-24,69.3,56.4,44.5,51.0,44.6,36.0,95,69,29,29.85,29.61,23,7,0,0.62
2014-4-25,78.5,59.5,40.9,51.0,42.1,34.0,81,56,30,29.89,29.74,25,9,0,0.00
2014-4-26,81.1,64.3,46.3,60.0,50.8,42.0,87,64,41,29.76,29.41,34,16,0,0.00
2014-4-27,74.2,66.0,58.5,63.0,56.3,40.0,92,73,30,29.41,29.15,32,20,0,0.01
2014-4-28,60.3,51.1,41.3,48.0,43.7,38.0,92,76,58,29.43,29.18,18,10,0,0.29
2014-4-29,46.0,42.3,40.0,44.0,39.5,37.0,94,89,82,29.99,29.42,23,11,0,0.01
2014-4-30,50.6,44.4,39.4,39.0,36.0,34.0,90,73,53,30.07,29.99,22,8,0,0.01
2014-5-1,53.8,46.0,40.0,39.0,37.0,34.0,84,72,56,30.07,30.01,21,8,0,0.00
2014-5-2,74.5,53.8,35.4,46.0,38.6,32.0,87,61,29,30.05,29.81,22,10,0,0.00
2014-5-3,74.8,59.9,44.1,50.0,43.1,37.0,80,56,35,29.98,29.89,13,4,0,0.00
2014-5-4,71.9,59.8,49.2,49.0,44.8,40.0,77,59,43,29.91,29.76,28,15,0,0.00
2014-5-5,74.7,59.9,45.4,51.0,45.6,41.0,83,62,41,29.84,29.76,16,8,0,0.00
2014-5-6,86.0,67.8,51.1,62.0,53.7,45.0,79,62,41,29.77,29.45,22,12,0,0.00
2014-5-7,93.7,77.6,63.4,63.0,57.0,45.0,86,55,19,29.58,29.43,29,14,0,0.00
2014-5-8,78.6,65.3,48.9,64.0,53.9,39.0,92,69,39,29.86,29.53,31,13,0,0.00
2014-5-9,72.2,56.1,39.9,44.0,40.1,36.0,87,59,33,29.93,29.80,17,8,0,0.00
2014-5-10,84.1,68.8,58.0,56.0,45.2,38.0,69,46,21,29.82,29.67,27,11,0,0.00
2014-5-11,73.3,61.1,53.7,70.0,53.7,38.0,94,79,39,29.74,29.38,36,14,0,0.78
2014-5-15,58.1,50.0,40.3,31.0,29.5,28.0,68,47,35,30.22,30.18,14,5,0,0.00
2014-5-16,56.0,44.6,31.3,42.0,34.3,26.0,92,69,43,30.22,30.13,9,4,0,0.01
2014-5-17,64.4,50.0,33.6,45.0,38.9,32.0,95,69,42,30.24,30.14,13,5,0,0.02
2014-5-18,73.7,59.7,41.7,51.0,44.4,36.0,82,59,42,30.18,29.86,27,14,0,0.00
2014-5-19,86.4,72.4,58.9,64.0,59.7,51.0,92,67,46,29.86,29.57,26,15,0,0.00
2014-5-20,83.8,73.2,61.0,66.0,62.4,54.0,91,70,52,29.83,29.66,23,7,0,0.00
2014-5-21,81.9,71.4,59.0,56.0,51.5,48.0,71,51,36,30.06,29.83,18,6,0,0.00
2014-5-22,72.3,64.4,55.0,63.0,56.5,46.0,92,77,50,30.22,29.99,23,8,0,0.27
2014-5-23,79.0,67.1,56.3,60.0,57.5,55.0,96,74,47,30.18,30.05,24,9,0,0.00
2014-5-24,79.1,67.4,59.6,65.0,60.6,57.0,92,80,49,30.08,29.95,21,10,0,0.04
2014-5-25,85.3,72.0,65.2,68.0,65.2,63.0,94,81,55,29.98,29.83,17,9,0,0.00
2014-5-26,87.9,74.7,63.5,65.0,62.7,60.0,93,70,40,29.93,29.84,21,11,0,0.00
2014-5-27,87.2,75.6,61.5,65.0,59.7,-99.9,92,62,41,29.93,29.86,15,-6,0,0.00
2014-5-28,89.6,72.4,62.6,64.0,60.5,58.0,89,69,38,29.96,29.89,19,6,0,0.00
2014-5-29,85.3,74.3,60.8,66.0,61.8,58.0,93,67,46,29.99,29.90,16,6,0,0.00
2014-5-30,87.8,76.3,65.8,69.0,64.6,61.0,92,69,44,30.02,29.91,18,8,0,0.00
2014-5-31,87.0,76.3,64.2,69.0,64.9,62.0,93,70,49,30.01,29.84,20,9,0,0.00
2014-6-1,89.0,72.4,61.8,69.0,64.5,60.0,94,78,50,29.88,29.65,29,12,0,0.63
2014-6-2,83.7,69.6,58.1,66.0,59.0,-99.9,95,74,44,29.96,29.77,13,-5,0,0.64
2014-6-3,87.5,71.9,61.2,74.0,62.6,-99.9,92,76,57,30.00,29.59,30,-1,0,0.00
2014-6-4,-200.0,0.0,200.0,-99.9,-99.9,-99.9,0,0,100,29.76,29.75,0,-999,0,0.00
2014-6-5,76.0,26.5,61.9,68.0,-33.4,-99.9,97,38,75,29.90,29.74,14,-588,0,0.01
2014-6-6,72.7,6.1,70.4,66.0,-85.8,-99.9,82,7,78,29.92,29.81,7,-914,0,0.00
2014-6-7,70.1,9.2,61.9,65.0,-77.7,-99.9,92,12,83,30.04,29.84,12,-863,0,0.01
2014-6-8,-200.0,0.0,200.0,-99.9,-99.9,-99.9,0,0,100,30.06,29.91,0,-999,0,0.00
2014-6-9,-200.0,0.0,200.0,-99.9,-99.9,-99.9,0,0,100,29.91,29.84,0,-999,0,0.00
2014-6-10,-200.0,0.0,200.0,-99.9,-99.9,-99.9,0,0,100,29.89,29.80,0,-999,0,0.00
2014-6-11,-200.0,0.0,200.0,-99.9,-99.9,-99.9,0,0,100,29.85,29.72,0,-999,0,0.00
2014-6-12,-200.0,0.0,200.0,-99.9,-99.9,-99.9,0,0,100,30.07,29.86,0,-999,0,0.00
2014-6-13,78.7,5.1,78.4,52.0,-90.2,-99.9,40,2,36,30.09,29.76,20,-934,0,0.00
2014-6-14,-200.0,0.0,200.0,-99.9,-99.9,-99.9,0,0,100,29.75,29.45,0,-999,0,0.00
2014-6-15,69.4,0.8,69.4,62.0,-97.9,-99.9,78,1,78,29.87,29.45,15,-987,0,0.00
2014-6-16,88.0,47.1,74.9,76.0,-2.3,-99.9,96,41,66,29.88,29.48,33,-427,0,0.00
2014-6-17,92.0,82.1,69.8,75.0,71.8,65.0,86,72,55,29.63,29.51,27,17,0,0.00
2014-6-18,93.0,82.8,75.2,74.0,72.1,70.0,85,71,52,29.69,29.57,30,16,0,0.00
2014-6-19,85.9,75.9,63.0,73.0,65.4,59.0,90,71,47,29.94,29.65,20,6,0,0.16
2014-6-20,93.7,77.3,60.6,74.0,66.6,57.0,94,72,48,29.95,29.75,33,8,0,0.00
2014-6-21,87.1,74.5,63.4,74.0,67.7,62.0,95,80,58,30.00,29.73,17,8,0,0.70
2014-6-22,83.0,74.6,67.8,71.0,67.7,65.0,94,79,60,29.83,29.69,22,5,0,0.09
2014-6-23,81.3,71.7,64.0,69.0,63.4,58.0,96,77,46,29.95,29.81,7,2,0,0.01
2014-6-24,82.1,69.8,60.4,68.0,62.9,58.0,92,79,54,29.99,29.92,12,3,0,0.02
2014-6-25,84.8,73.7,62.5,70.0,65.8,61.0,96,78,55,29.98,29.85,12,4,0,0.03
2014-6-26,85.2,74.5,67.9,74.0,68.6,66.0,94,82,63,29.89,29.70,19,8,0,0.01
2014-6-27,79.3,72.3,66.1,73.0,69.1,64.0,95,89,79,29.73,29.58,24,12,0,0.06
2014-6-28,80.7,70.8,62.6,70.0,65.8,61.0,96,85,68,29.76,29.61,17,9,0,0.04
2014-6-29,86.8,75.8,66.2,76.0,70.7,64.0,96,85,64,29.83,29.68,16,8,0,0.61
2014-6-30,82.7,75.8,63.5,76.0,69.3,59.0,96,81,56,29.75,29.49,23,8,0,0.61
2014-7-1,81.0,69.8,56.9,61.0,57.0,53.0,86,65,49,30.00,29.85,23,6,0,0.00
2014-7-2,72.8,61.4,53.1,56.0,52.1,50.0,92,73,50,30.18,30.00,12,5,0,0.01
2014-7-3,79.9,65.8,50.0,62.0,55.4,47.0,93,71,51,30.21,30.10,12,5,0,0.01
2014-7-4,61.5,61.0,60.0,57.0,57.0,57.0,88,87,85,30.17,30.14,5,4,0,0.00
2014-7-5,90.6,84.5,74.4,79.0,75.2,72.0,92,74,59,29.85,29.79,16,4,0,0.00
2014-7-6,97.6,81.3,65.2,80.0,71.6,63.0,94,74,55,29.80,29.73,9,4,0,0.00
2014-7-7,91.3,76.4,65.3,74.0,67.5,63.0,96,76,53,29.83,29.70,11,3,0,0.26
2014-7-8,82.5,71.8,61.1,65.0,60.9,58.0,95,71,45,29.98,29.83,12,4,0,0.26
2014-7-9,83.0,68.5,57.1,67.0,61.5,55.0,94,80,52,30.04,29.90,27,4,0,0.75
2014-7-10,83.1,72.8,62.8,72.0,66.5,61.0,95,82,65,29.96,29.87,16,8,0,0.76
2014-7-11,90.0,76.5,67.6,79.0,71.4,65.0,94,84,66,29.93,29.85,14,6,0,0.00
2014-7-12,89.7,77.9,69.3,77.0,70.6,66.0,92,78,63,29.97,29.88,12,5,0,0.00
2014-7-13,88.6,75.3,64.6,72.0,67.9,63.0,96,80,47,30.02,29.91,9,2,0,0.23
2014-7-14,75.6,68.5,55.5,66.0,59.4,50.0,95,75,52,30.14,29.91,21,4,0,0.58
2014-7-15,73.3,62.3,50.2,56.0,52.7,48.0,91,72,52,30.19,30.04,12,4,0,0.01
2014-7-16,74.9,63.5,48.9,61.0,53.9,46.0,94,73,50,30.08,29.99,6,1,0,0.01
2014-7-17,77.9,66.2,53.8,63.0,58.3,52.0,95,77,57,30.05,29.98,11,4,0,0.01
2014-7-18,75.2,65.9,55.3,64.0,59.7,53.0,95,81,65,30.03,29.92,20,7,0,0.00
2014-7-19,83.4,68.9,57.3,70.0,63.0,55.0,94,82,64,29.97,29.83,22,7,0,0.00
2014-7-20,90.2,76.5,63.4,77.0,69.6,62.0,94,80,62,29.85,29.70,17,8,0,0.00
2014-7-21,98.1,83.8,73.8,82.0,74.8,70.0,92,75,58,29.81,29.73,17,10,0,0.00
2014-7-22,93.4,82.5,71.2,79.0,72.9,67.0,93,74,55,30.07,29.81,15,6,0,0.00
2014-7-23,85.2,73.5,61.4,67.0,63.4,59.0,93,73,48,30.18,30.06,12,3,0,0.00
2014-7-24,84.8,72.5,61.3,71.0,64.8,59.0,95,78,61,30.09,29.79,21,8,0,0.00
2014-7-25,96.5,83.6,70.1,78.0,73.0,66.0,90,72,51,29.86,29.64,16,6,0,0.00
2014-7-26,91.8,81.2,73.7,81.0,75.6,71.0,97,84,59,29.86,29.68,15,3,0,0.00
2014-7-27,84.4,74.6,62.5,72.0,63.6,58.0,94,71,47,30.14,29.87,13,4,0,0.01
2014-7-28,78.2,66.4,54.4,60.0,57.5,52.0,94,75,53,30.25,30.14,10,3,0,0.01
2014-7-29,81.8,68.1,55.3,62.0,57.8,53.0,93,72,47,30.18,30.07,7,2,0,0.00
2014-7-30,82.6,68.2,56.0,62.0,57.0,53.0,94,71,40,30.11,30.07,10,2,0,0.00
2014-7-31,88.6,79.8,69.3,69.0,63.6,60.0,79,59,44,30.05,29.91,13,6,0,0.00
2014-8-1,83.7,70.4,56.4,67.0,61.7,54.0,94,75,55,30.06,29.95,11,3,0,0.00
2014-8-2,87.0,73.1,60.2,71.0,64.9,58.0,95,77,52,30.09,29.98,10,4,0,0.00
2014-8-3,91.3,76.8,63.1,72.0,66.6,60.0,93,73,49,30.04,29.91,13,5,0,0.00
2014-8-4,88.2,74.6,64.5,73.0,68.3,63.0,96,82,56,30.00,29.92,6,3,0,0.02
2014-8-5,88.1,76.4,67.5,75.0,70.5,66.0,96,83,61,30.00,29.86,13,5,0,0.00
2014-8-6,82.0,73.8,69.2,74.0,70.6,68.0,96,90,75,29.90,29.79,13,5,0,0.28
2014-8-7,79.6,71.6,64.5,70.0,67.5,62.0,96,87,70,29.93,29.85,6,2,0,0.01
2014-8-8,80.6,71.7,64.4,72.0,67.7,63.0,97,88,73,29.95,29.88,10,3,0,0.00
2014-8-9,81.2,71.3,63.6,72.0,67.7,62.0,97,88,73,30.00,29.87,12,5,0,0.02
2014-8-10,84.8,73.6,65.6,72.0,68.0,64.0,96,84,60,30.03,29.91,7,2,0,0.20
2014-8-11,77.5,69.8,59.2,66.0,61.3,55.0,95,76,53,30.13,30.04,12,4,0,0.01
2014-8-12,80.2,66.5,53.8,65.0,57.1,51.0,93,74,50,30.15,30.04,6,2,0,0.01
2014-8-13,81.8,67.0,53.8,67.0,59.5,52.0,95,79,52,30.12,29.99,11,3,0,0.00
2014-8-14,84.2,72.1,59.0,69.0,63.8,57.0,93,77,59,30.03,29.88,15,6,0,0.00
2014-8-15,75.6,70.0,65.9,71.0,67.2,63.0,95,91,84,29.88,29.77,12,4,0,0.01
2014-8-16,87.1,75.7,67.6,74.0,70.2,67.0,97,84,61,29.87,29.77,4,2,0,0.01
2014-8-17,90.5,75.9,64.1,75.0,69.5,63.0,96,82,57,29.99,29.79,13,3,0,0.03
2014-8-18,88.1,71.3,59.4,75.0,65.4,57.0,95,82,61,29.93,29.73,16,2,0,0.43
2014-8-19,89.9,77.2,65.9,75.0,70.1,64.0,96,80,54,29.78,29.68,6,2,0,0.00
2014-8-20,90.6,79.4,70.9,77.0,72.0,67.0,94,79,61,29.74,29.65,17,6,0,0.00
2014-8-21,88.7,78.3,69.8,77.0,72.4,66.0,94,82,68,29.81,29.67,19,6,0,0.72
2014-8-22,89.1,79.4,71.0,80.0,74.2,69.0,97,85,68,29.87,29.77,13,3,0,0.00
2014-8-23,90.9,78.0,68.1,76.0,70.6,64.0,96,79,59,29.87,29.65,15,7,0,0.00
2014-8-24,88.3,77.6,67.3,70.0,66.2,63.0,87,69,50,29.83,29.68,13,4,0,0.00
2014-8-25,78.7,69.3,62.7,65.0,61.1,56.0,93,76,54,30.03,29.81,16,4,0,0.00
2014-8-26,80.1,69.2,61.4,72.0,65.7,58.0,96,89,76,30.12,29.97,16,4,0,0.01
2014-8-27,73.0,70.2,66.3,71.0,68.9,65.0,97,95,93,30.09,29.95,12,4,0,0.08
2014-8-28,81.2,73.5,67.2,74.0,69.8,66.0,98,88,75,29.95,29.75,16,6,0,1.02
2014-8-29,70.3,25.8,68.0,69.0,25.3,67.0,96,36,94,29.83,29.71,9,1,0,0.07
2014-8-30,-200.0,0.0,200.0,-99.9,0.0,200.0,0,0,100,29.95,29.81,0,0,0,0.00
2014-8-31,-200.0,0.0,200.0,-99.9,0.0,200.0,0,0,100,29.82,29.60,0,0,0,0.00